Time;durP1;ratioP1;P1;durP2;ratioP2;P2;SDS_P1;SDS_P2;PMS_P1;PMS_P2;Temp;Humidity;BMP_temperature;BMP_pressure;BME280_temperature;BME280_humidity;BME280_pressure;Samples;Min_cycle;Max_cycle;Signal;HPM_P1;HPM_P2
2022/10/15 00:01:09;;;;;;;0.10;0.10;;;12.80;99.90;;;;;;5949383;23;20512;-96
2022/10/15 00:03:37;;;;;;;0.10;0.10;;;12.80;99.90;;;;;;5033731;28;20192;-95
2022/10/15 00:06:21;;;;;;;0.17;0.17;;;12.80;99.90;;;;;;5026528;28;20432;-94
2022/10/15 00:08:47;;;;;;;0.10;0.10;;;12.80;99.90;;;;;;5038828;28;20430;-96
2022/10/15 00:11:15;;;;;;;0.10;0.10;;;12.80;99.90;;;;;;5056326;28;20434;-94
2022/10/15 00:13:41;;;;;;;0.20;0.20;;;12.80;99.90;;;;;;5038771;23;20229;-96
2022/10/15 00:16:12;;;;;;;0.10;0.10;;;12.80;99.90;;;;;;5048607;23;20500;-95
2022/10/15 00:21:06;;;;;;;0.10;0.10;;;12.80;99.90;;;;;;5350710;23;20477;-93
2022/10/15 00:23:32;;;;;;;0.10;0.10;;;12.80;99.90;;;;;;5065538;23;20235;-94
2022/10/15 00:26:08;;;;;;;0.10;0.10;;;12.90;99.90;;;;;;5048017;28;20541;-96
2022/10/15 00:36:16;;;;;;;0.10;0.10;;;12.90;99.90;;;;;;5036425;28;20483;-87
2022/10/15 00:38:42;;;;;;;0.10;0.10;;;12.90;99.90;;;;;;5029410;23;21021;-95
2022/10/15 00:41:13;;;;;;;0.10;0.10;;;12.90;99.90;;;;;;5042135;28;20503;-96
2022/10/15 00:46:23;;;;;;;0.10;0.10;;;12.90;99.90;;;;;;5311526;23;20504;-93
2022/10/15 00:48:53;;;;;;;0.10;0.10;;;12.90;99.90;;;;;;5036882;28;20490;-92
2022/10/15 00:51:21;;;;;;;0.20;0.20;;;12.90;99.90;;;;;;5030860;28;20434;-94
2022/10/15 00:53:48;;;;;;;0.10;0.10;;;12.90;99.90;;;;;;5038131;28;20454;-93
2022/10/15 00:56:16;;;;;;;0.10;0.10;;;12.90;99.90;;;;;;5036753;28;20435;-95
2022/10/15 00:58:42;;;;;;;0.20;0.20;;;12.90;99.90;;;;;;5052664;28;20437;-93
2022/10/15 01:01:07;;;;;;;0.10;0.10;;;12.90;99.90;;;;;;5044579;28;20542;-95
2022/10/15 01:03:34;;;;;;;0.10;0.10;;;12.90;99.90;;;;;;5035854;28;20242;-94
2022/10/15 01:06:01;;;;;;;0.10;0.10;;;12.90;99.90;;;;;;5039324;28;20241;-94
2022/10/15 01:08:27;;;;;;;0.10;0.10;;;12.90;99.90;;;;;;5038871;28;20529;-95
2022/10/15 01:11:23;;;;;;;0.10;0.10;;;12.90;99.90;;;;;;5040171;28;20478;-94
2022/10/15 01:14:17;;;;;;;0.10;0.10;;;12.90;99.90;;;;;;5023568;28;20179;-95
2022/10/15 01:16:52;;;;;;;0.10;0.10;;;12.90;99.90;;;;;;5281778;23;20594;-94
2022/10/15 01:19:47;;;;;;;0.10;0.10;;;12.90;99.90;;;;;;5006939;28;20500;-95
2022/10/15 01:22:21;;;;;;;0.10;0.10;;;12.90;99.90;;;;;;4992683;28;20522;-96
2022/10/15 01:27:42;;;;;;;0.20;0.20;;;12.90;99.90;;;;;;5156696;23;20573;-94
2022/10/15 01:30:20;;;;;;;0.10;0.10;;;12.90;99.90;;;;;;5051017;28;20445;-95
2022/10/15 01:35:47;;;;;;;0.10;0.10;;;13.00;99.90;;;;;;5003482;28;20479;-95
2022/10/15 01:38:43;;;;;;;0.10;0.10;;;13.00;99.90;;;;;;5002587;28;20462;-95
2022/10/15 01:41:20;;;;;;;0.10;0.10;;;13.00;99.90;;;;;;5017601;28;20456;-94
2022/10/15 01:43:59;;;;;;;0.10;0.10;;;13.00;99.90;;;;;;5068655;23;20501;-88
2022/10/15 01:46:47;;;;;;;0.20;0.20;;;13.00;99.90;;;;;;5026378;28;20425;-94
2022/10/15 01:49:20;;;;;;;0.10;0.10;;;13.00;99.90;;;;;;5009776;28;20451;-95
2022/10/15 01:51:47;;;;;;;0.10;0.10;;;13.00;99.90;;;;;;5006654;28;20432;-96
2022/10/15 01:54:16;;;;;;;0.10;0.10;;;13.00;99.90;;;;;;5002060;28;20440;-95
2022/10/15 01:59:21;;;;;;;0.10;0.10;;;13.00;99.90;;;;;;5193602;23;20498;-96
2022/10/15 02:04:21;;;;;;;0.10;0.10;;;13.00;99.90;;;;;;5008926;28;20484;-95
2022/10/15 02:09:43;;;;;;;0.20;0.20;;;13.00;99.90;;;;;;5023333;23;21211;-96
2022/10/15 02:12:37;;;;;;;0.10;0.10;;;12.90;99.90;;;;;;4999749;28;20471;-95
2022/10/15 02:15:09;;;;;;;0.10;0.10;;;12.90;99.90;;;;;;5011486;28;20509;-95
2022/10/15 02:17:44;;;;;;;0.10;0.10;;;12.90;99.90;;;;;;5014984;23;20509;-96
2022/10/15 02:20:25;;;;;;;0.10;0.10;;;12.80;99.90;;;;;;5283259;23;20500;-90
2022/10/15 02:23:01;;;;;;;0.10;0.10;;;12.80;99.90;;;;;;5000305;28;20495;-87
2022/10/15 02:28:07;;;;;;;0.10;0.10;;;12.80;99.90;;;;;;6075636;23;20366;-95
2022/10/15 02:38:19;;;;;;;0.10;0.10;;;12.70;99.90;;;;;;5342715;23;20528;-96
2022/10/15 02:40:46;;;;;;;0.10;0.10;;;12.70;99.90;;;;;;5350457;23;21626;-95
2022/10/15 02:45:48;;;;;;;0.10;0.10;;;12.60;99.90;;;;;;5743822;23;20814;-96
2022/10/15 02:50:41;;;;;;;0.10;0.10;;;12.60;99.90;;;;;;5005356;23;20517;-95
2022/10/15 02:55:33;;;;;;;0.20;0.20;;;12.60;99.90;;;;;;5277533;23;20256;-96
2022/10/15 03:03:02;;;;;;;0.10;0.10;;;12.60;99.90;;;;;;5176744;22;20557;-96
2022/10/15 03:05:28;;;;;;;0.20;0.20;;;12.60;99.90;;;;;;5038618;28;20438;-96
2022/10/15 03:10:29;;;;;;;0.10;0.10;;;12.70;99.90;;;;;;5601351;23;20242;-96
2022/10/15 03:18:07;;;;;;;0.10;0.10;;;12.70;99.90;;;;;;5744933;23;20473;-96
2022/10/15 03:20:32;;;;;;;0.20;0.20;;;12.70;99.90;;;;;;5044219;28;20481;-96
2022/10/15 03:22:58;;;;;;;0.20;0.20;;;12.70;99.90;;;;;;5080382;23;20480;-95
2022/10/15 03:25:23;;;;;;;0.10;0.10;;;12.70;99.90;;;;;;5042419;28;20228;-88
2022/10/15 03:27:51;;;;;;;0.10;0.10;;;12.60;99.90;;;;;;5047231;28;20568;-93
2022/10/15 03:30:17;;;;;;;0.10;0.10;;;12.70;99.90;;;;;;5050022;28;20207;-96
2022/10/15 03:32:43;;;;;;;0.10;0.10;;;12.60;99.90;;;;;;5038956;28;20485;-95
2022/10/15 03:35:08;;;;;;;0.10;0.10;;;12.60;99.90;;;;;;5057286;28;20480;-96
2022/10/15 03:37:34;;;;;;;0.10;0.10;;;12.70;99.90;;;;;;5049057;23;20235;-96
2022/10/15 03:42:25;;;;;;;0.10;0.10;;;12.70;99.90;;;;;;5110359;23;20226;-96
2022/10/15 03:44:51;;;;;;;0.10;0.10;;;12.70;99.90;;;;;;5040390;28;20192;-82
2022/10/15 03:47:16;;;;;;;0.10;0.10;;;12.70;99.90;;;;;;5038197;28;20188;-96
2022/10/15 03:49:42;;;;;;;0.10;0.10;;;12.70;99.90;;;;;;5020189;28;20196;-96
2022/10/15 03:52:07;;;;;;;0.10;0.10;;;12.60;99.90;;;;;;5040490;28;20379;-96
2022/10/15 03:54:33;;;;;;;0.10;0.10;;;12.60;99.90;;;;;;5043470;28;20196;-96
2022/10/15 03:56:59;;;;;;;0.10;0.10;;;12.60;99.90;;;;;;5031212;28;20250;-95
2022/10/15 03:59:25;;;;;;;0.10;0.10;;;12.50;99.90;;;;;;5009638;28;20204;-96
2022/10/15 04:01:50;;;;;;;0.10;0.10;;;12.50;99.90;;;;;;5152993;23;20363;-96
2022/10/15 04:06:51;;;;;;;0.20;0.20;;;12.40;99.90;;;;;;5386477;23;20235;-96
2022/10/15 04:14:48;;;;;;;0.10;0.10;;;12.40;99.90;;;;;;5182588;22;20486;-85
2022/10/15 04:17:14;;;;;;;0.10;0.10;;;12.50;99.90;;;;;;5082602;22;20498;-89
2022/10/15 04:22:15;;;;;;;0.10;0.10;;;12.50;99.90;;;;;;5079760;22;20497;-95
2022/10/15 04:27:16;;;;;;;0.13;0.13;;;12.50;99.90;;;;;;5092731;22;20239;-96
2022/10/15 04:29:41;;;;;;;0.10;0.10;;;12.50;99.90;;;;;;5035532;28;20470;-96
2022/10/15 04:32:12;;;;;;;0.10;0.10;;;12.50;99.90;;;;;;5034079;28;20180;-96
2022/10/15 04:34:38;;;;;;;0.20;0.20;;;12.50;99.90;;;;;;5035647;28;20189;-96
2022/10/15 04:37:04;;;;;;;0.10;0.10;;;12.50;99.90;;;;;;5046536;22;20551;-96
2022/10/15 04:39:29;;;;;;;0.10;0.10;;;12.50;99.90;;;;;;5055573;28;20195;-96
2022/10/15 04:41:55;;;;;;;0.20;0.20;;;12.50;99.90;;;;;;5040359;28;20196;-96
2022/10/15 04:44:21;;;;;;;0.10;0.10;;;12.50;99.90;;;;;;5048315;28;20171;-96
2022/10/15 04:46:46;;;;;;;0.10;0.10;;;12.50;99.90;;;;;;5039846;28;20266;-97
2022/10/15 04:49:12;;;;;;;0.10;0.10;;;12.50;99.90;;;;;;5042285;28;20386;-95
2022/10/15 04:51:38;;;;;;;0.10;0.10;;;12.50;99.90;;;;;;5044737;28;20239;-96
2022/10/15 04:54:04;;;;;;;0.10;0.10;;;12.50;99.90;;;;;;5041861;28;20282;-96
2022/10/15 04:56:29;;;;;;;0.10;0.10;;;12.40;99.90;;;;;;5030846;28;20244;-96
2022/10/15 04:58:55;;;;;;;0.10;0.10;;;12.40;99.90;;;;;;5032329;28;20523;-96
2022/10/15 05:01:21;;;;;;;0.10;0.10;;;12.40;99.90;;;;;;5018413;28;20224;-96
2022/10/15 05:03:49;;;;;;;0.10;0.10;;;12.40;99.90;;;;;;5036896;28;20194;-96
2022/10/15 05:06:18;;;;;;;0.10;0.10;;;12.30;99.90;;;;;;5039822;28;20175;-95
2022/10/15 05:08:44;;;;;;;0.10;0.10;;;12.30;99.90;;;;;;5031779;28;20431;-96
2022/10/15 05:11:18;;;;;;;0.10;0.10;;;12.30;99.90;;;;;;5055136;28;20446;-94
2022/10/15 05:13:45;;;;;;;0.10;0.10;;;12.30;99.90;;;;;;5049239;28;20988;-95
2022/10/15 05:16:13;;;;;;;0.10;0.10;;;12.30;99.90;;;;;;5028705;28;20447;-96
2022/10/15 05:18:40;;;;;;;0.10;0.10;;;12.30;99.90;;;;;;5028402;28;20477;-96
2022/10/15 05:21:07;;;;;;;0.10;0.10;;;12.30;99.90;;;;;;5018953;28;20470;-96
2022/10/15 05:23:32;;;;;;;0.20;0.20;;;12.20;99.90;;;;;;5041756;28;20450;-96
2022/10/15 05:25:59;;;;;;;0.20;0.20;;;12.30;99.90;;;;;;5044389;28;20447;-96
2022/10/15 05:28:25;;;;;;;0.10;0.10;;;12.20;99.90;;;;;;5043506;28;20607;-96
2022/10/15 05:30:51;;;;;;;0.10;0.10;;;12.20;99.90;;;;;;5036006;28;20450;-96
2022/10/15 05:33:17;;;;;;;0.20;0.20;;;12.20;99.90;;;;;;5023820;28;20260;-96
2022/10/15 05:35:42;;;;;;;0.10;0.10;;;12.30;99.90;;;;;;5041657;28;20187;-96
2022/10/15 05:38:08;;;;;;;0.10;0.10;;;12.30;99.90;;;;;;5039443;28;20180;-96
2022/10/15 05:40:34;;;;;;;0.10;0.10;;;12.30;99.90;;;;;;5055712;28;20218;-96
2022/10/15 05:42:59;;;;;;;0.10;0.10;;;12.30;99.90;;;;;;5034581;28;20196;-96
2022/10/15 05:45:25;;;;;;;0.10;0.10;;;12.30;99.90;;;;;;5074535;23;20271;-95
2022/10/15 05:47:55;;;;;;;0.10;0.10;;;12.30;99.90;;;;;;5018325;28;20191;-94
2022/10/15 05:50:24;;;;;;;0.10;0.10;;;12.30;99.90;;;;;;5027326;28;20295;-96
2022/10/15 05:52:50;;;;;;;0.10;0.10;;;12.30;99.90;;;;;;5022089;28;20462;-93
2022/10/15 05:55:15;;;;;;;0.20;0.20;;;12.30;99.90;;;;;;5023688;28;20463;-96
2022/10/15 05:57:41;;;;;;;0.10;0.10;;;12.30;99.90;;;;;;5030731;28;20232;-95
2022/10/15 06:00:08;;;;;;;0.10;0.10;;;12.30;99.90;;;;;;5031463;28;20216;-95
2022/10/15 06:02:36;;;;;;;0.20;0.20;;;12.30;99.90;;;;;;5033002;28;20168;-96
2022/10/15 06:05:03;;;;;;;0.10;0.10;;;12.30;99.90;;;;;;5011588;28;20474;-96
2022/10/15 06:07:31;;;;;;;0.20;0.20;;;12.30;99.90;;;;;;5022406;28;20464;-95
2022/10/15 06:09:56;;;;;;;0.10;0.10;;;12.30;99.90;;;;;;5030881;28;20418;-95
2022/10/15 06:12:22;;;;;;;0.20;0.20;;;12.30;99.90;;;;;;5030355;28;20438;-93
2022/10/15 06:14:47;;;;;;;0.20;0.20;;;12.30;99.90;;;;;;5019457;28;20184;-92
2022/10/15 06:17:13;;;;;;;0.10;0.10;;;12.30;99.90;;;;;;5029656;28;20195;-96
2022/10/15 06:19:39;;;;;;;0.10;0.10;;;12.30;99.90;;;;;;5026953;28;20192;-96
2022/10/15 06:22:04;;;;;;;0.10;0.10;;;12.30;99.90;;;;;;5026419;28;20196;-96
2022/10/15 06:24:30;;;;;;;0.10;0.10;;;12.30;99.90;;;;;;5027044;28;20195;-95
2022/10/15 06:26:58;;;;;;;0.20;0.20;;;12.30;99.90;;;;;;5010133;28;20195;-94
2022/10/15 06:29:24;;;;;;;0.20;0.20;;;12.30;99.90;;;;;;5020783;28;20188;-96
2022/10/15 06:31:49;;;;;;;0.20;0.20;;;12.30;99.90;;;;;;5127148;23;20494;-96
2022/10/15 06:34:15;;;;;;;0.20;0.20;;;12.30;99.90;;;;;;5060740;28;20187;-96
2022/10/15 06:36:41;;;;;;;0.20;0.20;;;12.30;99.90;;;;;;5057038;28;20189;-96
2022/10/15 06:39:06;;;;;;;0.10;0.10;;;12.30;99.90;;;;;;5050011;28;20171;-96
2022/10/15 06:41:32;;;;;;;0.20;0.20;;;12.30;99.90;;;;;;5019580;28;20292;-95
2022/10/15 06:43:57;;;;;;;0.20;0.20;;;12.30;99.90;;;;;;5012092;28;20668;-93
2022/10/15 06:46:23;;;;;;;0.10;0.10;;;12.30;99.90;;;;;;5024642;28;21689;-94
2022/10/15 06:48:50;;;;;;;0.20;0.20;;;12.30;99.90;;;;;;5030425;28;20196;-93
2022/10/15 06:56:22;;;;;;;0.10;0.10;;;12.20;99.90;;;;;;5178886;23;20323;-96
2022/10/15 06:58:47;;;;;;;0.10;0.10;;;12.20;99.90;;;;;;5107914;23;20474;-94
2022/10/15 07:01:13;;;;;;;0.20;0.20;;;12.20;99.90;;;;;;5016320;28;20224;-95
2022/10/15 07:03:39;;;;;;;0.20;0.20;;;12.20;99.90;;;;;;5021541;28;20179;-94
2022/10/15 07:06:06;;;;;;;0.20;0.20;;;12.10;99.90;;;;;;5023846;28;20686;-96
2022/10/15 07:08:32;;;;;;;0.20;0.20;;;12.10;99.90;;;;;;5012985;28;20175;-91
2022/10/15 07:11:00;;;;;;;0.10;0.10;;;12.10;99.90;;;;;;5034655;28;20813;-95
2022/10/15 07:13:25;;;;;;;0.20;0.20;;;12.10;99.90;;;;;;5022270;28;20278;-94
2022/10/15 07:15:52;;;;;;;0.20;0.20;;;12.10;99.90;;;;;;5010415;28;20466;-95
2022/10/15 07:18:19;;;;;;;0.20;0.20;;;12.10;99.90;;;;;;5028073;28;20218;-95
2022/10/15 07:20:44;;;;;;;0.20;0.20;;;12.00;99.90;;;;;;5034449;28;20479;-95
2022/10/15 07:23:10;;;;;;;0.10;0.10;;;12.00;99.90;;;;;;5025640;28;20450;-95
2022/10/15 07:25:35;;;;;;;0.20;0.20;;;12.10;99.90;;;;;;5058250;23;20302;-93
2022/10/15 07:28:01;;;;;;;0.20;0.20;;;12.10;99.90;;;;;;5022950;28;20183;-90
2022/10/15 07:30:27;;;;;;;0.20;0.20;;;12.20;99.90;;;;;;5026835;28;20195;-92
2022/10/15 07:32:54;;;;;;;0.20;0.20;;;12.20;99.90;;;;;;5026919;28;20184;-92
2022/10/15 07:35:20;;;;;;;0.10;0.10;;;12.20;99.90;;;;;;5028871;28;20456;-90
2022/10/15 07:37:46;;;;;;;0.20;0.20;;;12.20;99.90;;;;;;5008310;28;20532;-92
2022/10/15 07:40:12;;;;;;;0.20;0.20;;;12.30;99.90;;;;;;5006023;28;20308;-91
2022/10/15 07:42:39;;;;;;;0.13;0.13;;;12.20;99.90;;;;;;5024845;28;20453;-91
2022/10/15 07:45:05;;;;;;;0.20;0.20;;;12.30;99.90;;;;;;5030746;28;20185;-90
2022/10/15 07:47:31;;;;;;;0.20;0.20;;;12.30;99.90;;;;;;5009908;28;20536;-92
2022/10/15 07:49:56;;;;;;;0.10;0.10;;;12.40;99.90;;;;;;5026775;28;20938;-91
2022/10/15 07:52:22;;;;;;;0.20;0.20;;;12.40;99.90;;;;;;5026278;28;20563;-90
2022/10/15 07:54:47;;;;;;;0.20;0.20;;;12.30;99.90;;;;;;5026570;28;20274;-94
2022/10/15 07:57:13;;;;;;;0.20;0.20;;;12.40;99.90;;;;;;5030628;28;20639;-93
2022/10/15 07:59:38;;;;;;;0.20;0.20;;;12.40;99.90;;;;;;5031485;28;20191;-93
2022/10/15 08:02:04;;;;;;;0.10;0.10;;;12.40;99.90;;;;;;5033573;28;20218;-94
2022/10/15 08:04:29;;;;;;;0.10;0.10;;;12.40;99.90;;;;;;5029005;28;20180;-92
2022/10/15 08:06:55;;;;;;;0.20;0.20;;;12.40;99.90;;;;;;5024480;28;20647;-91
2022/10/15 08:09:21;;;;;;;0.20;0.20;;;12.30;99.90;;;;;;5030971;28;20176;-91
2022/10/15 08:11:46;;;;;;;0.17;0.17;;;12.40;99.90;;;;;;5027028;28;20275;-92
2022/10/15 08:14:12;;;;;;;0.20;0.20;;;12.40;99.90;;;;;;5019616;28;20199;-93
2022/10/15 08:16:37;;;;;;;0.10;0.10;;;12.40;99.90;;;;;;5029812;28;20270;-92
2022/10/15 08:19:04;;;;;;;0.10;0.10;;;12.40;99.90;;;;;;5034698;28;20204;-93
2022/10/15 08:21:29;;;;;;;0.13;0.13;;;12.40;99.90;;;;;;5024545;28;20231;-94
2022/10/15 08:23:54;;;;;;;0.20;0.20;;;12.40;99.90;;;;;;5031165;28;20484;-93
2022/10/15 08:26:21;;;;;;;0.20;0.20;;;12.40;99.90;;;;;;5034187;28;20239;-93
2022/10/15 08:28:47;;;;;;;0.20;0.20;;;12.40;99.90;;;;;;5040631;28;20270;-89
2022/10/15 08:31:13;;;;;;;0.10;0.10;;;12.40;99.90;;;;;;5044477;28;20532;-91
2022/10/15 08:33:39;;;;;;;0.20;0.20;;;12.40;99.90;;;;;;5015747;28;20220;-93
2022/10/15 08:36:05;;;;;;;0.10;0.10;;;12.40;99.90;;;;;;5012296;28;20454;-92
2022/10/15 08:38:31;;;;;;;0.10;0.10;;;12.50;99.90;;;;;;5029036;28;20180;-92
2022/10/15 08:40:59;;;;;;;0.20;0.20;;;12.50;99.90;;;;;;5026836;28;20473;-95
2022/10/15 08:43:39;;;;;;;0.10;0.10;;;12.50;99.90;;;;;;5032089;28;20199;-90
2022/10/15 08:46:36;;;;;;;0.20;0.20;;;12.50;99.90;;;;;;5027062;28;20477;-90
2022/10/15 08:49:03;;;;;;;0.10;0.10;;;12.60;99.90;;;;;;5037365;28;20485;-88
2022/10/15 08:51:43;;;;;;;0.10;0.10;;;12.60;99.90;;;;;;5034000;28;20430;-92
2022/10/15 08:54:14;;;;;;;0.10;0.10;;;12.50;99.90;;;;;;5030395;28;20528;-89
2022/10/15 08:56:44;;;;;;;0.10;0.10;;;12.50;99.90;;;;;;5033899;28;20815;-88
2022/10/15 08:59:09;;;;;;;0.10;0.10;;;12.50;99.90;;;;;;5019076;28;20549;-93
2022/10/15 09:01:50;;;;;;;0.10;0.10;;;12.60;99.90;;;;;;5023947;28;20562;-89
2022/10/15 09:04:44;;;;;;;0.10;0.10;;;12.60;99.90;;;;;;5027690;28;20180;-92
2022/10/15 09:07:18;;;;;;;0.10;0.10;;;12.50;99.90;;;;;;5034588;28;20801;-93
2022/10/15 09:09:52;;;;;;;0.10;0.10;;;12.50;99.90;;;;;;5035530;28;20454;-95
2022/10/15 09:12:47;;;;;;;0.20;0.20;;;12.60;99.90;;;;;;5036448;28;20491;-92
2022/10/15 09:15:16;;;;;;;0.10;0.10;;;12.60;99.90;;;;;;5018601;28;20446;-94
2022/10/15 09:17:44;;;;;;;0.10;0.10;;;12.70;99.90;;;;;;5037090;28;20447;-96
2022/10/15 09:20:15;;;;;;;0.10;0.10;;;12.70;99.90;;;;;;5024794;28;20549;-91
2022/10/15 09:22:41;;;;;;;0.10;0.10;;;12.80;99.90;;;;;;5030980;28;20442;-93
2022/10/15 09:25:14;;;;;;;0.10;0.10;;;12.80;99.90;;;;;;5020918;28;20521;-93
2022/10/15 09:27:41;;;;;;;0.10;0.10;;;12.80;99.90;;;;;;5017284;28;20183;-93
2022/10/15 09:30:32;;;;;;;0.10;0.10;;;12.80;99.90;;;;;;5029991;28;20871;-95
2022/10/15 09:33:23;;;;;;;0.10;0.10;;;12.90;99.90;;;;;;5018475;28;20476;-95
2022/10/15 09:36:26;;;;;;;0.10;0.10;;;12.90;99.90;;;;;;5022850;28;20408;-94
2022/10/15 09:39:29;;;;;;;0.10;0.10;;;12.90;99.90;;;;;;5032124;28;20526;-94
2022/10/15 09:42:12;;;;;;;0.10;0.10;;;12.90;99.90;;;;;;5021775;28;20490;-93
2022/10/15 09:44:41;;;;;;;0.20;0.20;;;12.80;99.90;;;;;;5027366;28;20450;-94
2022/10/15 09:47:20;;;;;;;0.10;0.10;;;12.80;99.90;;;;;;5029993;28;20442;-93
2022/10/15 09:49:46;;;;;;;0.10;0.10;;;12.80;99.90;;;;;;5041312;28;20445;-95
2022/10/15 09:52:23;;;;;;;0.10;0.10;;;12.80;99.90;;;;;;5040777;28;20465;-94
2022/10/15 09:55:04;;;;;;;0.10;0.10;;;12.70;99.90;;;;;;5025708;28;20195;-92
2022/10/15 09:57:32;;;;;;;0.10;0.10;;;12.80;99.90;;;;;;5010560;28;20966;-96
2022/10/15 10:00:00;;;;;;;0.10;0.10;;;12.90;99.90;;;;;;5040992;28;20482;-93
2022/10/15 10:02:25;;;;;;;0.10;0.10;;;12.90;99.90;;;;;;5010323;28;20446;-92
2022/10/15 10:04:52;;;;;;;0.10;0.10;;;13.00;99.90;;;;;;5034519;28;20500;-96
2022/10/15 10:07:36;;;;;;;0.10;0.10;;;13.10;99.90;;;;;;5015681;28;20725;-93
2022/10/15 10:10:27;;;;;;;0.10;0.10;;;13.10;99.90;;;;;;5048273;28;20440;-94
2022/10/15 10:12:55;;;;;;;0.10;0.10;;;13.00;99.90;;;;;;5022217;28;20543;-96
2022/10/15 10:15:20;;;;;;;0.10;0.10;;;13.00;99.90;;;;;;5017829;28;20457;-94
2022/10/15 10:17:54;;;;;;;0.10;0.10;;;13.10;99.90;;;;;;5044172;28;20530;-93
2022/10/15 10:20:24;;;;;;;0.10;0.10;;;13.20;99.90;;;;;;5041519;28;20235;-90
2022/10/15 10:22:56;;;;;;;0.10;0.10;;;13.30;99.90;;;;;;5022284;28;20454;-92
2022/10/15 10:25:33;;;;;;;0.10;0.10;;;13.30;99.90;;;;;;5028004;28;20563;-93
2022/10/15 10:28:12;;;;;;;0.10;0.10;;;13.30;99.90;;;;;;5029165;28;20803;-95
2022/10/15 10:31:02;;;;;;;0.10;0.10;;;13.30;99.90;;;;;;5024564;28;20437;-92
2022/10/15 10:33:44;;;;;;;0.10;0.10;;;13.30;99.90;;;;;;5001548;28;20447;-91
2022/10/15 10:36:39;;;;;;;0.10;0.10;;;13.30;99.90;;;;;;5039404;28;20479;-95
2022/10/15 10:39:13;;;;;;;0.10;0.10;;;13.30;99.90;;;;;;5008696;28;20445;-94
2022/10/15 10:42:03;;;;;;;0.10;0.10;;;13.40;99.90;;;;;;5015497;28;20528;-92
2022/10/15 10:44:31;;;;;;;0.10;0.10;;;13.40;99.90;;;;;;5015902;28;20877;-95
2022/10/15 10:47:01;;;;;;;0.20;0.20;;;13.50;99.90;;;;;;5030070;28;20485;-91
2022/10/15 10:49:36;;;;;;;0.10;0.10;;;13.60;99.90;;;;;;5030338;28;20537;-92
2022/10/15 10:52:02;;;;;;;0.10;0.10;;;13.60;99.90;;;;;;5026618;28;20430;-90
2022/10/15 10:54:29;;;;;;;0.10;0.10;;;13.80;99.90;;;;;;5027946;28;21011;-91
2022/10/15 10:56:55;;;;;;;0.10;0.10;;;13.80;99.90;;;;;;5028919;28;20450;-92
2022/10/15 10:59:24;;;;;;;0.10;0.10;;;13.80;99.90;;;;;;5028664;28;20503;-92
2022/10/15 11:01:50;;;;;;;0.10;0.10;;;13.90;99.90;;;;;;5030290;28;20477;-92
2022/10/15 11:04:24;;;;;;;0.10;0.10;;;13.90;99.90;;;;;;5023355;28;20438;-92
2022/10/15 11:07:17;;;;;;;0.10;0.10;;;14.00;99.90;;;;;;5026161;28;20473;-92
2022/10/15 11:10:01;;;;;;;0.10;0.10;;;13.90;99.90;;;;;;5020161;28;20458;-90
2022/10/15 11:12:49;;;;;;;0.10;0.10;;;14.00;99.90;;;;;;5024575;28;20491;-90
2022/10/15 11:15:30;;;;;;;0.10;0.10;;;14.10;99.90;;;;;;5023224;28;20460;-91
2022/10/15 11:18:17;;;;;;;0.10;0.10;;;14.20;99.90;;;;;;5017077;28;21415;-94
2022/10/15 11:21:03;;;;;;;0.10;0.10;;;14.20;99.90;;;;;;5025390;28;20470;-93
2022/10/15 11:23:47;;;;;;;0.10;0.10;;;14.30;99.90;;;;;;5026192;28;20459;-96
2022/10/15 11:26:40;;;;;;;0.10;0.10;;;14.50;99.90;;;;;;5031619;28;21283;-95
2022/10/15 11:29:31;;;;;;;0.10;0.10;;;14.60;99.90;;;;;;5029795;28;20429;-96
2022/10/15 11:32:29;;;;;;;0.10;0.10;;;14.70;99.90;;;;;;5027756;28;20441;-96
2022/10/15 11:35:23;;;;;;;0.10;0.10;;;15.00;99.90;;;;;;5032193;28;20440;-96
2022/10/15 11:38:03;;;;;;;0.10;0.10;;;15.50;99.90;;;;;;5041690;28;20434;-96
2022/10/15 11:40:47;;;;;;;0.10;0.10;;;16.00;99.90;;;;;;5035394;28;20568;-96
2022/10/15 11:43:16;;;;;;;0.10;0.10;;;16.00;99.90;;;;;;5039507;28;20422;-95
2022/10/15 11:46:05;;;;;;;0.10;0.10;;;16.00;99.90;;;;;;5080344;23;20516;-93
2022/10/15 11:48:43;;;;;;;0.10;0.10;;;15.90;99.90;;;;;;5027946;28;20422;-96
2022/10/15 11:51:38;;;;;;;0.10;0.10;;;15.80;99.90;;;;;;5015545;28;20468;-94
2022/10/15 11:54:22;;;;;;;0.10;0.10;;;15.50;99.90;;;;;;5004128;28;20462;-91
2022/10/15 11:56:51;;;;;;;0.10;0.10;;;15.30;99.90;;;;;;5022054;28;20442;-96
2022/10/15 11:59:16;;;;;;;0.10;0.10;;;15.20;99.90;;;;;;5017790;28;20442;-92
2022/10/15 12:01:50;;;;;;;0.10;0.10;;;15.40;99.90;;;;;;5034307;28;20984;-94
2022/10/15 12:04:32;;;;;;;0.10;0.10;;;15.40;99.90;;;;;;5029563;28;20187;-91
2022/10/15 12:07:01;;;;;;;0.10;0.10;;;15.50;99.90;;;;;;5030168;28;20808;-95
2022/10/15 12:09:32;;;;;;;0.10;0.10;;;15.60;99.90;;;;;;5028321;28;20435;-95
2022/10/15 12:12:22;;;;;;;0.10;0.10;;;15.70;99.90;;;;;;5020447;28;20453;-96
2022/10/15 12:14:59;;;;;;;0.10;0.10;;;15.80;99.90;;;;;;5033171;28;20524;-93
2022/10/15 12:17:50;;;;;;;0.10;0.10;;;16.10;99.90;;;;;;5031852;28;20442;-91
2022/10/15 12:20:18;;;;;;;0.10;0.10;;;16.20;99.90;;;;;;5042137;28;21038;-93
2022/10/15 12:22:46;;;;;;;0.10;0.10;;;16.20;99.90;;;;;;5034987;28;20996;-96
2022/10/15 12:25:32;;;;;;;0.10;0.10;;;16.30;99.90;;;;;;5032332;28;20519;-92
2022/10/15 12:28:03;;;;;;;0.10;0.10;;;16.20;99.90;;;;;;5006508;28;20442;-92
2022/10/15 12:30:35;;;;;;;0.10;0.10;;;16.20;99.90;;;;;;5018767;28;20474;-94
2022/10/15 12:33:03;;;;;;;0.10;0.10;;;16.00;99.90;;;;;;5027421;28;20446;-96
2022/10/15 12:35:37;;;;;;;0.10;0.10;;;16.00;99.90;;;;;;5018239;28;20533;-96
2022/10/15 12:38:22;;;;;;;0.10;0.10;;;16.10;99.90;;;;;;5016888;28;20470;-96
2022/10/15 12:41:02;;;;;;;0.10;0.10;;;16.00;99.90;;;;;;5027659;28;20470;-90
2022/10/15 12:43:29;;;;;;;0.10;0.10;;;16.00;99.90;;;;;;5033620;28;20446;-93
2022/10/15 12:46:04;;;;;;;0.10;0.10;;;16.00;99.90;;;;;;5029297;28;20477;-95
2022/10/15 12:48:34;;;;;;;0.10;0.10;;;16.00;99.90;;;;;;5017701;28;20430;-90
2022/10/15 12:51:21;;;;;;;0.10;0.10;;;15.90;99.90;;;;;;5016325;28;20488;-95
2022/10/15 12:53:48;;;;;;;0.10;0.10;;;16.00;99.90;;;;;;5028565;28;20566;-95
2022/10/15 12:56:14;;;;;;;0.10;0.10;;;16.00;99.90;;;;;;5031255;28;20442;-94
2022/10/15 12:58:50;;;;;;;0.10;0.10;;;16.10;99.90;;;;;;5031127;28;21163;-91
2022/10/15 13:01:19;;;;;;;0.10;0.10;;;16.10;99.90;;;;;;5029474;28;20215;-92
2022/10/15 13:03:47;;;;;;;0.10;0.10;;;16.10;99.90;;;;;;5031463;28;20434;-91
2022/10/15 13:06:18;;;;;;;0.10;0.10;;;16.10;99.90;;;;;;5015998;28;20443;-90
2022/10/15 13:08:59;;;;;;;0.10;0.10;;;16.20;99.90;;;;;;5028652;28;20493;-88
2022/10/15 13:11:47;;;;;;;0.10;0.10;;;16.20;99.90;;;;;;4995993;28;20647;-91
2022/10/15 13:14:50;;;;;;;0.10;0.10;;;17.00;99.90;;;;;;5008386;28;20434;-89
2022/10/15 13:17:20;;;;;;;0.10;0.10;;;17.60;99.90;;;;;;5014396;28;20442;-90
2022/10/15 13:19:47;;;;;;;0.10;0.10;;;17.30;99.90;;;;;;5015361;28;20419;-92
2022/10/15 13:22:22;;;;;;;0.10;0.10;;;16.90;99.90;;;;;;5033691;28;20434;-94
2022/10/15 13:24:47;;;;;;;0.10;0.10;;;16.70;99.90;;;;;;5031563;28;20437;-91
2022/10/15 13:27:25;;;;;;;0.10;0.10;;;16.70;99.90;;;;;;5048205;28;20456;-93
2022/10/15 13:29:56;;;;;;;0.10;0.10;;;16.70;99.90;;;;;;5034944;28;20193;-95
2022/10/15 13:32:23;;;;;;;0.10;0.10;;;17.00;99.90;;;;;;5014878;28;20448;-91
2022/10/15 13:34:49;;;;;;;0.10;0.10;;;18.10;99.90;;;;;;5024005;28;20518;-91
2022/10/15 13:37:18;;;;;;;0.10;0.10;;;17.90;99.90;;;;;;5014387;28;20513;-91
2022/10/15 13:39:44;;;;;;;0.10;0.10;;;17.60;99.90;;;;;;5014128;28;20185;-88
2022/10/15 13:42:15;;;;;;;0.10;0.10;;;18.80;99.90;;;;;;5012381;28;21235;-92
2022/10/15 13:44:42;;;;;;;0.10;0.10;;;18.70;99.90;;;;;;5023992;28;20191;-90
2022/10/15 13:47:27;;;;;;;0.10;0.10;;;19.10;99.90;;;;;;5033473;28;20426;-95
2022/10/15 13:50:20;;;;;;;0.20;0.10;;;19.50;99.90;;;;;;5032057;28;20414;-93
2022/10/15 13:53:29;;;;;;;0.10;0.00;;;20.20;99.90;;;;;;5030263;28;20441;-92
2022/10/15 13:55:58;;;;;;;0.10;0.00;;;19.90;99.90;;;;;;5005140;28;20824;-88
2022/10/15 13:58:35;;;;;;;0.10;0.10;;;18.60;99.90;;;;;;5010605;28;20423;-90
2022/10/15 14:01:21;;;;;;;0.10;0.10;;;18.60;99.90;;;;;;5012052;28;21384;-90
2022/10/15 14:03:50;;;;;;;0.10;0.10;;;18.80;99.90;;;;;;5011835;28;20439;-92
2022/10/15 14:06:20;;;;;;;0.10;0.10;;;19.00;99.90;;;;;;5017265;28;20430;-92
2022/10/15 14:08:48;;;;;;;0.10;0.00;;;19.60;99.90;;;;;;5020549;28;20492;-89
2022/10/15 14:11:14;;;;;;;0.10;0.00;;;20.10;99.90;;;;;;5028156;28;20437;-91
2022/10/15 14:13:48;;;;;;;0.10;0.10;;;20.30;99.90;;;;;;5013139;28;20415;-93
2022/10/15 14:16:27;;;;;;;0.10;0.00;;;19.90;99.90;;;;;;5013448;28;20180;-89
2022/10/15 14:18:56;;;;;;;0.10;0.00;;;19.20;99.90;;;;;;5012001;28;20484;-91
2022/10/15 14:21:30;;;;;;;0.10;0.07;;;18.80;99.90;;;;;;5030129;28;20470;-92
2022/10/15 14:24:26;;;;;;;0.10;0.10;;;18.40;99.90;;;;;;5018629;28;20449;-92
2022/10/15 14:26:52;;;;;;;0.10;0.10;;;18.20;99.90;;;;;;4993927;28;20443;-91
2022/10/15 14:29:26;;;;;;;0.10;0.10;;;17.60;99.90;;;;;;5013928;28;20458;-92